createdAt,value
2023-02-28T00:00:24.581Z,102576.44
2023-02-28T00:01:27.589Z,102566.03
2023-02-28T00:02:47.962Z,102575.63
2023-02-28T00:03:50.705Z,102565.16
2023-02-28T00:04:53.906Z,102566.91
2023-02-28T00:05:56.443Z,102566.91
2023-02-28T00:06:57.994Z,102563.41
2023-02-28T00:08:00.612Z,102565.19
2023-02-28T00:09:03.266Z,102560.84
2023-02-28T00:10:07.322Z,102562.59
2023-02-28T00:11:11.641Z,102561.72
2023-02-28T00:12:13.431Z,102555.63
2023-02-28T00:13:15.940Z,102562.59
2023-02-28T00:14:17.500Z,102569.56
2023-02-28T00:15:20.803Z,102561.72
2023-02-28T00:16:24.068Z,102560.88
2023-02-28T00:17:26.775Z,102560.03
2023-02-28T00:18:30.492Z,102565.25
2023-02-28T00:19:33.990Z,102557.41
2023-02-28T00:20:35.528Z,102567.00
2023-02-28T00:21:38.071Z,102569.66
2023-02-28T00:22:41.294Z,102564.44
2023-02-28T00:23:44.710Z,102566.19
2023-02-28T00:24:46.664Z,102570.59
2023-02-28T00:25:50.231Z,102567.09
2023-02-28T00:26:51.759Z,102571.44
2023-02-28T00:27:54.469Z,102570.59
2023-02-28T00:28:56.014Z,102566.19
2023-02-28T00:29:58.515Z,102565.31
2023-02-28T00:31:01.056Z,102567.97
2023-02-28T00:32:06.329Z,102560.13
2023-02-28T00:33:07.898Z,102563.56
2023-02-28T00:34:10.701Z,102560.94
2023-02-28T00:35:13.070Z,102564.44
2023-02-28T00:36:15.753Z,102565.31
2023-02-28T00:37:17.463Z,102559.16
2023-02-28T00:38:20.038Z,102558.28
2023-02-28T00:39:22.256Z,102562.59
2023-02-28T00:40:24.862Z,102570.44
2023-02-28T00:41:26.588Z,102565.16
2023-02-28T00:42:29.219Z,102565.97
2023-02-28T00:43:31.430Z,102561.59
2023-02-28T00:44:34.552Z,102565.09
2023-02-28T00:45:36.142Z,102565.09
2023-02-28T00:46:38.676Z,102561.59
2023-02-28T00:47:41.561Z,102560.69
2023-02-28T00:48:44.428Z,102552.81
2023-02-28T00:49:45.985Z,102559.81
2023-02-28T00:50:50.455Z,102552.78
2023-02-28T00:51:52.996Z,102558.88
2023-02-28T00:52:55.492Z,102558.00
2023-02-28T00:53:57.087Z,102554.50
2023-02-28T00:54:59.760Z,102561.50
2023-02-28T00:56:01.587Z,102563.19
2023-02-28T00:57:04.249Z,102553.59
2023-02-28T00:58:05.844Z,102561.50
2023-02-28T00:59:08.513Z,102562.34
2023-02-28T01:00:11.883Z,102560.56
2023-02-28T01:01:18.753Z,102556.25
2023-02-28T01:02:20.764Z,102563.19
2023-02-28T01:03:24.766Z,102562.34
2023-02-28T01:04:26.338Z,102560.63
2023-02-28T01:05:29.292Z,102561.50
2023-02-28T01:06:30.968Z,102562.34
2023-02-28T01:07:33.510Z,102565.00
2023-02-28T01:08:35.052Z,102570.22
2023-02-28T01:09:37.565Z,102561.53
2023-02-28T01:10:39.342Z,102567.66
2023-02-28T01:11:44.764Z,102566.84
2023-02-28T01:12:46.323Z,102561.59
2023-02-28T01:13:49.251Z,102565.16
2023-02-28T01:14:50.840Z,102568.66
2023-02-28T01:15:55.351Z,102571.31
2023-02-28T01:16:56.879Z,102570.50
2023-02-28T01:17:59.502Z,102571.38
2023-02-28T01:19:02.407Z,102574.03
2023-02-28T01:20:05.930Z,102566.19
2023-02-28T01:21:08.827Z,102573.22
2023-02-28T01:22:11.322Z,102572.34
2023-02-28T01:23:13.344Z,102566.28
2023-02-28T01:24:16.028Z,102563.72
2023-02-28T01:25:17.726Z,102566.34
2023-02-28T01:26:23.019Z,102577.72
2023-02-28T01:27:24.554Z,102569.06
2023-02-28T01:28:27.234Z,102577.78
2023-02-28T01:29:28.862Z,102575.19
2023-02-28T01:30:32.140Z,102569.09
2023-02-28T01:31:33.789Z,102567.38
2023-02-28T01:32:37.460Z,102566.50
2023-02-28T01:33:39.711Z,102565.63
2023-02-28T01:34:43.891Z,102563.06
2023-02-28T01:35:45.454Z,102572.66
2023-02-28T01:36:47.934Z,102563.94
2023-02-28T01:37:49.444Z,102565.69
2023-02-28T01:38:52.338Z,102563.09
2023-02-28T01:39:53.844Z,102568.34
2023-02-28T01:40:57.072Z,102564.84
2023-02-28T01:41:58.605Z,102570.09
2023-02-28T01:43:01.137Z,102570.97
2023-02-28T01:44:06.138Z,102568.34
2023-02-28T01:45:23.867Z,102562.28
2023-02-28T01:46:25.721Z,102569.28
2023-02-28T01:47:31.890Z,102565.81
2023-02-28T01:48:37.581Z,102568.44
2023-02-28T01:49:40.815Z,102564.97
2023-02-28T01:50:47.121Z,102565.00
2023-02-28T01:51:51.783Z,102559.78
2023-02-28T01:52:59.067Z,102564.13
2023-02-28T01:54:03.917Z,102559.78
2023-02-28T01:55:08.786Z,102563.31
2023-02-28T01:56:15.901Z,102561.56
2023-02-28T01:57:21.637Z,102564.19
2023-02-28T01:58:23.935Z,102563.31
2023-02-28T01:59:31.114Z,102559.00
2023-02-28T02:00:33.849Z,102562.47
2023-02-28T02:01:36.915Z,102558.16
2023-02-28T02:02:38.700Z,102569.50
2023-02-28T02:03:41.230Z,102559.03
2023-02-28T02:04:50.908Z,102559.91
2023-02-28T02:05:54.775Z,102559.97
2023-02-28T02:06:56.435Z,102562.56
2023-02-28T02:08:03.320Z,102558.22
2023-02-28T02:09:05.466Z,102554.78
2023-02-28T02:10:15.705Z,102559.13
2023-02-28T02:11:19.967Z,102554.78
2023-02-28T02:12:34.641Z,102561.75
2023-02-28T02:13:56.084Z,102558.28
2023-02-28T02:15:06.314Z,102557.44
2023-02-28T02:16:21.666Z,102555.69
2023-02-28T02:17:33.168Z,102554.00
2023-02-28T02:18:42.899Z,102556.63
2023-02-28T02:20:17.699Z,102562.75
2023-02-28T02:21:55.253Z,102556.69
2023-02-28T02:23:18.829Z,102555.88
2023-02-28T02:24:48.366Z,102553.31
2023-02-28T02:25:56.042Z,102548.94
2023-02-28T02:27:17.380Z,102546.38
2023-02-28T02:29:00.124Z,102546.38
2023-02-28T02:30:45.670Z,102555.09
2023-02-28T02:32:15.756Z,102546.41
2023-02-28T02:33:32.688Z,102548.16
2023-02-28T02:34:57.085Z,102550.81
2023-02-28T02:36:06.652Z,102550.81
2023-02-28T02:37:15.989Z,102552.56
2023-02-28T02:38:27.051Z,102550.88
2023-02-28T02:39:34.737Z,102548.25
2023-02-28T02:40:44.470Z,102548.25
2023-02-28T02:41:51.308Z,102543.91
2023-02-28T02:42:58.017Z,102536.06
2023-02-28T02:44:07.443Z,102541.28
2023-02-28T02:45:14.622Z,102540.41
2023-02-28T02:46:21.050Z,102536.06
2023-02-28T02:47:28.188Z,102544.81
2023-02-28T02:48:35.910Z,102532.63
2023-02-28T02:49:40.984Z,102536.09
2023-02-28T02:50:50.685Z,102523.91
2023-02-28T02:51:55.157Z,102536.97
2023-02-28T02:53:02.069Z,102535.22
2023-02-28T02:54:08.963Z,102530.00
2023-02-28T02:55:13.976Z,102530.00
2023-02-28T02:56:17.912Z,102536.13
2023-02-28T02:57:25.810Z,102530.03
2023-02-28T02:58:31.712Z,102535.28
2023-02-28T02:59:35.751Z,102533.56
2023-02-28T03:00:42.119Z,102533.56
2023-02-28T03:01:44.858Z,102531.81
2023-02-28T03:02:49.802Z,102532.69
2023-02-28T03:03:52.771Z,102527.50
2023-02-28T03:05:01.429Z,102532.75
2023-02-28T03:06:07.007Z,102532.75
2023-02-28T03:07:08.573Z,102533.63
2023-02-28T03:08:11.254Z,102529.31
2023-02-28T03:09:13.419Z,102531.94
2023-02-28T03:10:37.827Z,102540.66
2023-02-28T03:11:44.383Z,102538.06
2023-02-28T03:12:58.594Z,102538.09
2023-02-28T03:14:15.021Z,102533.75
2023-02-28T03:15:23.558Z,102538.09
2023-02-28T03:16:37.430Z,102535.53
2023-02-28T03:18:02.531Z,102539.00
2023-02-28T03:19:28.957Z,102542.53
2023-02-28T03:20:42.056Z,102539.91
2023-02-28T03:21:55.350Z,102535.56
2023-02-28T03:23:04.944Z,102532.06
2023-02-28T03:24:12.262Z,102535.59
2023-02-28T03:25:20.940Z,102534.72
2023-02-28T03:26:25.922Z,102532.13
2023-02-28T03:27:29.973Z,102536.50
2023-02-28T03:28:38.762Z,102530.41
2023-02-28T03:29:45.138Z,102532.16
2023-02-28T03:30:54.594Z,102526.94
2023-02-28T03:32:00.617Z,102527.84
2023-02-28T03:33:08.390Z,102520.03
2023-02-28T03:34:13.379Z,102520.03
2023-02-28T03:35:22.727Z,102520.03
2023-02-28T03:36:29.983Z,102517.44
2023-02-28T03:37:37.262Z,102518.31
2023-02-28T03:38:43.975Z,102520.91
2023-02-28T03:39:49.991Z,102526.13
2023-02-28T03:40:57.662Z,102518.34
2023-02-28T03:42:03.284Z,102539.22
2023-02-28T03:43:15.484Z,102526.19
2023-02-28T03:44:20.624Z,102525.31
2023-02-28T03:45:26.737Z,102529.69
2023-02-28T03:46:32.728Z,102527.97
2023-02-28T03:47:41.320Z,102529.69
2023-02-28T03:48:46.773Z,102528.00
2023-02-28T03:49:53.491Z,102530.59
2023-02-28T03:55:44.570Z,102535.84
2023-02-28T03:56:53.839Z,102531.53
2023-02-28T03:58:03.935Z,102530.69
2023-02-28T03:59:11.794Z,102531.53
2023-02-28T04:00:19.576Z,102528.94
2023-02-28T04:01:27.294Z,102532.44
2023-02-28T04:02:30.054Z,102536.78
2023-02-28T04:03:31.643Z,102537.66
2023-02-28T04:04:34.608Z,102532.44
2023-02-28T04:05:48.250Z,102537.66
2023-02-28T04:06:52.567Z,102540.28
2023-02-28T04:07:55.061Z,102542.00
2023-02-28T04:08:57.585Z,102544.59
2023-02-28T04:09:59.606Z,102539.38
2023-02-28T04:11:08.686Z,102541.13
2023-02-28T04:12:10.375Z,102537.63
2023-02-28T04:13:12.901Z,102543.72
2023-02-28T04:14:14.720Z,102537.66
2023-02-28T04:15:17.317Z,102543.75
2023-02-28T04:16:33.596Z,102543.75
2023-02-28T04:17:37.385Z,102536.78
2023-02-28T04:18:39.000Z,102547.22
2023-02-28T04:19:41.503Z,102547.22
2023-02-28T04:20:43.043Z,102548.13
2023-02-28T04:21:47.641Z,102546.38
2023-02-28T04:22:49.163Z,102546.38
2023-02-28T04:23:51.698Z,102549.00
2023-02-28T04:24:54.546Z,102542.03
2023-02-28T04:25:57.147Z,102544.63
2023-02-28T04:27:00.039Z,102544.63
2023-02-28T04:28:02.541Z,102543.75
2023-02-28T04:29:06.079Z,102542.94
2023-02-28T04:30:09.639Z,102546.41
2023-02-28T04:31:11.577Z,102554.22
2023-02-28T04:32:14.557Z,102549.84
2023-02-28T04:33:16.172Z,102542.06
2023-02-28T04:34:19.899Z,102549.84
2023-02-28T04:35:21.478Z,102547.25
2023-02-28T04:36:26.384Z,102549.84
2023-02-28T04:37:29.763Z,102549.84
2023-02-28T04:38:34.754Z,102549.84
2023-02-28T04:39:37.832Z,102554.22
2023-02-28T04:40:40.431Z,102552.47
2023-02-28T04:41:42.111Z,102548.16
2023-02-28T04:42:45.969Z,102555.13
2023-02-28T04:43:47.583Z,102547.28
2023-02-28T04:44:50.071Z,102557.72
2023-02-28T04:45:51.605Z,102556.84
2023-02-28T04:46:54.130Z,102547.28
2023-02-28T04:47:55.733Z,102552.50
2023-02-28T04:48:59.017Z,102549.91
2023-02-28T04:50:00.827Z,102552.50
2023-02-28T04:51:04.077Z,102549.91
2023-02-28T04:52:05.786Z,102555.13
2023-02-28T04:53:08.292Z,102551.63
2023-02-28T04:54:10.344Z,102546.44
2023-02-28T04:55:12.816Z,102550.78
2023-02-28T04:56:16.027Z,102550.78
2023-02-28T04:57:18.539Z,102553.41
2023-02-28T04:58:23.907Z,102548.19
2023-02-28T04:59:26.425Z,102556.88
2023-02-28T05:00:28.041Z,102552.53
2023-02-28T05:01:33.192Z,102556.88
2023-02-28T05:02:35.534Z,102562.09
2023-02-28T05:03:38.080Z,102550.78
2023-02-28T05:04:40.633Z,102559.50
2023-02-28T05:05:42.234Z,102556.88
2023-02-28T05:06:45.149Z,102549.94
2023-02-28T05:07:46.698Z,102554.28
2023-02-28T05:08:49.465Z,102557.75
2023-02-28T05:09:51.003Z,102562.97
2023-02-28T05:10:53.499Z,102560.38
2023-02-28T05:11:55.799Z,102560.38
2023-02-28T05:12:58.360Z,102556.88
2023-02-28T05:14:01.605Z,102561.25
2023-02-28T05:15:05.821Z,102559.50
2023-02-28T05:16:08.112Z,102561.25
2023-02-28T05:17:11.426Z,102562.09
2023-02-28T05:18:13.112Z,102559.50
2023-02-28T05:19:16.074Z,102561.25
2023-02-28T05:20:18.226Z,102559.50
2023-02-28T05:21:27.854Z,102562.16
2023-02-28T05:22:30.639Z,102563.00
2023-02-28T05:23:32.561Z,102568.22
2023-02-28T05:24:35.016Z,102565.66
2023-02-28T05:25:36.603Z,102561.31
2023-02-28T05:26:41.022Z,102563.03
2023-02-28T05:27:42.789Z,102563.91
2023-02-28T05:28:45.286Z,102567.41
2023-02-28T05:29:49.141Z,102558.69
2023-02-28T05:30:50.664Z,102570.91
2023-02-28T05:31:53.450Z,102567.44
2023-02-28T05:32:55.712Z,102566.56
2023-02-28T05:33:58.172Z,102565.69
2023-02-28T05:34:59.716Z,102570.91
2023-02-28T05:36:02.403Z,102566.56
2023-02-28T05:37:04.344Z,102567.47
2023-02-28T05:38:07.277Z,102563.09
2023-02-28T05:39:13.257Z,102572.69
2023-02-28T05:40:16.353Z,102570.06
2023-02-28T05:41:20.299Z,102568.34
2023-02-28T05:42:23.618Z,102568.34
2023-02-28T05:43:26.163Z,102569.19
2023-02-28T05:44:29.138Z,102564.84
2023-02-28T05:45:32.097Z,102568.34
2023-02-28T05:46:34.627Z,102572.69
2023-02-28T05:47:36.874Z,102574.44
2023-02-28T05:48:41.420Z,102571.00
2023-02-28T05:49:44.292Z,102574.47
2023-02-28T05:50:46.969Z,102572.75
2023-02-28T05:51:49.736Z,102574.50
2023-02-28T05:52:51.565Z,102576.25
2023-02-28T05:53:54.061Z,102574.50
2023-02-28T05:54:55.594Z,102571.91
2023-02-28T05:55:58.342Z,102581.50
2023-02-28T05:56:59.921Z,102581.50
2023-02-28T05:58:02.642Z,102573.66
2023-02-28T05:59:09.666Z,102580.63
2023-02-28T06:00:15.864Z,102592.81
2023-02-28T06:01:24.993Z,102587.59
2023-02-28T06:02:27.925Z,102584.09
2023-02-28T06:03:29.492Z,102588.47
2023-02-28T06:04:36.980Z,102585.88
2023-02-28T06:05:39.402Z,102581.53
2023-02-28T06:06:42.108Z,102585.00
2023-02-28T06:07:45.435Z,102582.41
2023-02-28T06:08:47.970Z,102584.13
2023-02-28T06:09:49.490Z,102591.97
2023-02-28T06:10:51.986Z,102587.66
2023-02-28T06:11:55.002Z,102586.78
2023-02-28T06:12:56.575Z,102585.03
2023-02-28T06:14:01.641Z,102590.25
2023-02-28T06:15:03.574Z,102589.34
2023-02-28T06:16:06.693Z,102590.25
2023-02-28T06:17:10.578Z,102593.72
2023-02-28T06:18:13.132Z,102603.31
2023-02-28T06:19:15.960Z,102591.13
2023-02-28T06:20:18.849Z,102592.88
2023-02-28T06:21:20.651Z,102599.81
2023-02-28T06:22:23.437Z,102598.09
2023-02-28T06:23:25.061Z,102601.56
2023-02-28T06:24:28.835Z,102601.56
2023-02-28T06:25:30.427Z,102601.56
2023-02-28T06:26:33.350Z,102597.22
2023-02-28T06:27:35.015Z,102603.31
2023-02-28T06:28:41.968Z,102595.47
2023-02-28T06:29:44.676Z,102603.31
2023-02-28T06:30:46.666Z,102599.81
2023-02-28T06:31:49.547Z,102603.31
2023-02-28T06:32:52.981Z,102611.13
2023-02-28T06:33:55.618Z,102615.47
2023-02-28T06:34:59.043Z,102611.13
2023-02-28T06:36:02.340Z,102612.84
2023-02-28T06:37:04.009Z,102607.63
2023-02-28T06:38:06.518Z,102612.84
2023-02-28T06:39:09.110Z,102609.38
2023-02-28T06:40:13.931Z,102606.75
2023-02-28T06:41:15.503Z,102618.03
2023-02-28T06:42:18.219Z,102611.97
2023-02-28T06:43:19.740Z,102618.03
2023-02-28T06:44:23.388Z,102612.81
2023-02-28T06:45:27.002Z,102610.19
2023-02-28T06:46:29.521Z,102611.94
2023-02-28T06:47:32.126Z,102607.59
2023-02-28T06:48:36.214Z,102611.06
2023-02-28T06:49:39.974Z,102611.91
2023-02-28T06:50:42.550Z,102614.53
2023-02-28T06:51:45.984Z,102616.28
2023-02-28T06:52:48.557Z,102622.34
2023-02-28T06:53:50.122Z,102621.47
2023-02-28T06:55:00.623Z,102619.69
2023-02-28T06:56:07.162Z,102619.69
2023-02-28T06:57:09.885Z,102620.56
2023-02-28T06:58:19.476Z,102622.28
2023-02-28T06:59:22.607Z,102619.66
2023-02-28T07:00:26.222Z,102630.09
2023-02-28T07:01:29.068Z,102625.72
2023-02-28T07:02:32.538Z,102626.59
2023-02-28T07:03:35.972Z,102631.78
2023-02-28T07:04:40.447Z,102630.06
2023-02-28T07:05:42.185Z,102630.91
2023-02-28T07:06:44.678Z,102633.47
2023-02-28T07:07:47.830Z,102634.31
2023-02-28T07:08:50.774Z,102629.97
2023-02-28T07:09:52.320Z,102629.06
2023-02-28T07:10:55.249Z,102634.25
2023-02-28T07:11:57.348Z,102629.03
2023-02-28T07:12:59.827Z,102624.66
2023-02-28T07:14:02.337Z,102629.00
2023-02-28T07:15:05.549Z,102627.22
2023-02-28T07:16:11.568Z,102633.31
2023-02-28T07:17:13.387Z,102629.81
2023-02-28T07:18:15.891Z,102631.56
2023-02-28T07:19:19.746Z,102632.38
2023-02-28T07:20:21.347Z,102627.16
2023-02-28T07:21:24.135Z,102631.50
2023-02-28T07:22:26.812Z,102633.22
2023-02-28T07:23:28.325Z,102624.53
2023-02-28T07:24:30.942Z,102628.84
2023-02-28T07:25:32.860Z,102631.41
2023-02-28T07:26:35.990Z,102632.28
2023-02-28T07:27:37.558Z,102634.00
2023-02-28T07:28:40.110Z,102629.63
2023-02-28T07:29:42.585Z,102642.66
2023-02-28T07:30:44.231Z,102642.59
2023-02-28T07:31:47.470Z,102637.38
2023-02-28T07:32:49.098Z,102633.00
2023-02-28T07:33:51.681Z,102640.84
2023-02-28T07:34:54.804Z,102639.09
2023-02-28T07:36:02.830Z,102632.97
2023-02-28T07:37:06.353Z,102633.81
2023-02-28T07:38:08.474Z,102632.09
2023-02-28T07:39:11.292Z,102635.53
2023-02-28T07:40:14.085Z,102636.41
2023-02-28T07:41:17.336Z,102629.41
2023-02-28T07:42:19.028Z,102636.38
2023-02-28T07:43:21.515Z,102639.81
2023-02-28T07:44:23.185Z,102640.69
2023-02-28T07:45:25.781Z,102641.53
2023-02-28T07:46:30.470Z,102638.91
2023-02-28T07:47:33.750Z,102638.88
2023-02-28T07:48:36.678Z,102651.06
2023-02-28T07:49:39.269Z,102645.81
2023-02-28T07:50:42.212Z,102645.81
2023-02-28T07:51:44.715Z,102644.88
2023-02-28T07:52:46.306Z,102639.66
2023-02-28T07:53:48.798Z,102643.09
2023-02-28T07:54:50.503Z,102638.72
2023-02-28T07:55:56.401Z,102643.06
2023-02-28T07:56:59.278Z,102648.25
2023-02-28T07:58:01.038Z,102648.22
2023-02-28T07:59:03.692Z,102649.97
2023-02-28T08:00:07.601Z,102649.91
2023-02-28T08:01:12.412Z,102645.53
2023-02-28T08:02:15.572Z,102654.25
2023-02-28T08:03:19.018Z,102656.81
2023-02-28T08:04:21.610Z,102654.16
2023-02-28T08:05:23.300Z,102652.41
2023-02-28T08:06:27.380Z,102655.84
2023-02-28T08:07:29.134Z,102661.06
2023-02-28T08:08:32.171Z,102654.94
2023-02-28T08:09:35.069Z,102654.91
2023-02-28T08:10:38.469Z,102653.13
2023-02-28T08:11:40.012Z,102660.09
2023-02-28T08:12:42.495Z,102660.03
2023-02-28T08:13:44.866Z,102660.88
2023-02-28T08:14:47.819Z,102659.09
2023-02-28T08:15:49.342Z,102654.69
2023-02-28T08:16:51.851Z,102652.94
2023-02-28T08:17:53.482Z,102659.00
2023-02-28T08:18:56.001Z,102654.63
2023-02-28T08:19:57.531Z,102655.47
2023-02-28T08:21:00.161Z,102658.09
2023-02-28T08:22:04.076Z,102651.94
2023-02-28T08:23:06.549Z,102653.63
2023-02-28T08:24:08.512Z,102655.38
2023-02-28T08:25:11.313Z,102662.31
2023-02-28T08:26:12.847Z,102658.81
2023-02-28T08:27:15.437Z,102664.00
2023-02-28T08:28:17.013Z,102665.75
2023-02-28T08:29:19.611Z,102658.72
2023-02-28T08:30:21.361Z,102654.31
2023-02-28T08:31:23.972Z,102654.31
2023-02-28T08:32:30.096Z,102657.75
2023-02-28T08:33:32.365Z,102657.69
2023-02-28T08:34:34.918Z,102659.44
2023-02-28T08:35:37.352Z,102658.53
2023-02-28T08:36:41.128Z,102666.38
2023-02-28T08:37:45.080Z,102665.44
2023-02-28T08:38:46.885Z,102660.19
2023-02-28T08:39:49.407Z,102657.56
2023-02-28T08:40:52.395Z,102654.88
2023-02-28T08:42:06.745Z,102655.75
2023-02-28T08:43:09.904Z,102652.22
2023-02-28T08:44:12.372Z,102656.53
2023-02-28T08:45:16.162Z,102656.47
2023-02-28T08:46:18.690Z,102657.34
2023-02-28T08:47:20.539Z,102655.53
2023-02-28T08:48:23.074Z,102661.63
2023-02-28T08:49:25.629Z,102660.72
2023-02-28T08:50:27.199Z,102658.97
2023-02-28T08:51:31.075Z,102647.56
2023-02-28T08:52:32.772Z,102660.63
2023-02-28T08:53:37.046Z,102662.31
2023-02-28T08:54:39.565Z,102651.84
2023-02-28T08:55:42.050Z,102658.81
2023-02-28T08:56:43.854Z,102651.78
2023-02-28T08:57:46.367Z,102651.72
2023-02-28T08:58:49.281Z,102648.22
2023-02-28T08:59:52.373Z,102657.84
2023-02-28T09:01:10.482Z,102657.78
2023-02-28T09:02:14.966Z,102659.53
2023-02-28T09:03:16.531Z,102654.28
2023-02-28T09:04:20.609Z,102652.53
2023-02-28T09:05:23.929Z,102655.97
2023-02-28T09:06:29.573Z,102656.81
2023-02-28T09:07:31.363Z,102648.94
2023-02-28T09:08:35.660Z,102647.19
2023-02-28T09:09:38.445Z,102646.31
2023-02-28T09:10:39.994Z,102655.00
2023-02-28T09:11:42.607Z,102655.81
2023-02-28T09:12:46.872Z,102647.94
2023-02-28T09:13:49.388Z,102650.53
2023-02-28T09:14:51.513Z,102651.38
2023-02-28T09:15:54.108Z,102644.34
2023-02-28T09:16:56.698Z,102639.94
2023-02-28T09:17:58.367Z,102644.28
2023-02-28T09:19:00.955Z,102640.78
2023-02-28T09:20:03.523Z,102637.28
2023-02-28T09:21:06.233Z,102640.78
2023-02-28T09:22:08.741Z,102641.66
2023-02-28T09:23:11.702Z,102634.63
2023-02-28T09:24:16.122Z,102636.34
2023-02-28T09:25:19.201Z,102638.97
2023-02-28T09:26:24.134Z,102638.94
2023-02-28T09:27:26.760Z,102640.66
2023-02-28T09:28:28.351Z,102638.84
2023-02-28T09:29:30.888Z,102631.84
2023-02-28T09:30:33.479Z,102634.44
2023-02-28T09:31:35.024Z,102634.41
2023-02-28T09:32:37.495Z,102632.66
2023-02-28T09:33:39.003Z,102636.91
2023-02-28T09:34:41.799Z,102636.88
2023-02-28T09:35:45.069Z,102638.53
2023-02-28T09:36:48.654Z,102629.78
2023-02-28T09:37:52.687Z,102624.53
2023-02-28T09:38:55.172Z,102636.72
2023-02-28T09:39:58.383Z,102635.78
2023-02-28T09:41:03.396Z,102633.09
2023-02-28T09:42:08.591Z,102627.81
2023-02-28T09:43:15.769Z,102633.91
2023-02-28T09:44:24.374Z,102623.34
2023-02-28T09:45:33.456Z,102622.44
2023-02-28T09:46:41.529Z,102629.41
2023-02-28T09:47:46.190Z,102620.59
2023-02-28T09:48:51.209Z,102633.66
2023-02-28T09:49:53.982Z,102631.84
2023-02-28T09:51:04.227Z,102628.34
2023-02-28T09:52:11.074Z,102630.88
2023-02-28T09:53:23.375Z,102625.63
2023-02-28T09:54:29.680Z,102625.63
2023-02-28T09:55:46.562Z,102632.63
2023-02-28T09:56:54.333Z,102630.81
2023-02-28T09:57:57.563Z,102623.00
2023-02-28T09:59:07.566Z,102629.00
2023-02-28T10:00:19.193Z,102625.44
2023-02-28T10:01:30.265Z,102631.41
2023-02-28T10:03:00.168Z,102637.41
2023-02-28T10:04:07.890Z,102635.56
2023-02-28T10:05:13.361Z,102627.63
2023-02-28T10:06:20.417Z,102630.25
2023-02-28T10:07:44.983Z,102617.03
2023-02-28T10:08:55.570Z,102631.84
2023-02-28T10:10:01.251Z,102629.97
2023-02-28T10:11:10.041Z,102634.34
2023-02-28T10:12:13.603Z,102623.78
2023-02-28T10:13:24.458Z,102632.50
2023-02-28T10:14:30.463Z,102630.75
2023-02-28T10:15:35.044Z,102630.72
2023-02-28T10:16:41.173Z,102630.72
2023-02-28T10:17:55.261Z,102620.16
2023-02-28T10:19:07.504Z,102620.97
2023-02-28T10:20:14.374Z,102626.16
2023-02-28T10:21:22.953Z,102627.81
2023-02-28T10:22:28.761Z,102623.31
2023-02-28T10:23:36.753Z,102625.84
2023-02-28T10:24:41.536Z,102630.97
2023-02-28T10:25:48.911Z,102626.47
2023-02-28T10:26:58.029Z,102624.66
2023-02-28T10:28:32.824Z,102614.88
2023-02-28T10:29:34.727Z,102623.56
2023-02-28T10:30:40.498Z,102617.31
2023-02-28T10:31:43.183Z,102611.09
2023-02-28T10:32:51.674Z,102608.34
2023-02-28T10:33:54.426Z,102608.22
2023-02-28T10:35:00.967Z,102610.75
2023-02-28T10:36:07.507Z,102627.38
2023-02-28T10:37:10.913Z,102610.69
2023-02-28T10:38:20.754Z,102614.22
2023-02-28T10:39:38.540Z,102619.47
2023-02-28T10:40:40.093Z,102616.03
2023-02-28T10:41:45.428Z,102617.00
2023-02-28T10:42:56.806Z,102617.00
2023-02-28T10:44:19.886Z,102621.41
2023-02-28T10:45:21.636Z,102617.06
2023-02-28T10:46:27.732Z,102609.22
2023-02-28T10:47:29.678Z,102615.38
2023-02-28T10:48:36.034Z,102619.63
2023-02-28T10:49:41.356Z,102617.84
2023-02-28T10:50:46.717Z,102615.09
2023-02-28T10:51:53.525Z,102622.00
2023-02-28T10:52:55.689Z,102613.13
2023-02-28T10:54:02.632Z,102607.81
2023-02-28T10:55:23.577Z,102603.41
2023-02-28T10:56:26.783Z,102610.38
2023-02-28T10:57:32.505Z,102600.72
2023-02-28T10:58:50.362Z,102606.81
2023-02-28T10:59:55.839Z,102609.41
2023-02-28T11:00:58.148Z,102606.75
2023-02-28T11:02:00.784Z,102589.25
2023-02-28T11:03:03.438Z,102597.22
2023-02-28T11:04:20.251Z,102594.69
2023-02-28T11:05:30.851Z,102593.13
2023-02-28T11:06:35.560Z,102598.50
2023-02-28T11:07:50.590Z,102591.66
2023-02-28T11:08:57.722Z,102590.09
2023-02-28T11:09:59.583Z,102596.31
2023-02-28T11:11:07.845Z,102592.97
2023-02-28T11:12:22.666Z,102584.34
2023-02-28T11:13:29.539Z,102582.63
2023-02-28T11:14:37.620Z,102587.09
2023-02-28T11:15:40.312Z,102594.09
2023-02-28T11:16:42.897Z,102604.66
2023-02-28T11:17:44.542Z,102600.28
2023-02-28T11:18:51.419Z,102598.56
2023-02-28T11:19:56.185Z,102595.84
2023-02-28T11:21:01.495Z,102602.84
2023-02-28T11:22:05.846Z,102606.28
2023-02-28T11:23:16.230Z,102601.03
2023-02-28T11:24:26.581Z,102590.59
2023-02-28T11:25:31.072Z,102599.41
2023-02-28T11:26:42.714Z,102599.41
2023-02-28T11:27:48.347Z,102599.44
2023-02-28T11:29:10.402Z,102595.91
2023-02-28T11:30:34.791Z,102596.66
2023-02-28T11:31:37.370Z,102600.94
2023-02-28T11:32:49.629Z,102595.63
2023-02-28T11:33:53.970Z,102592.03
2023-02-28T11:35:03.519Z,102593.69
2023-02-28T11:36:13.964Z,102594.56
2023-02-28T11:37:18.602Z,102599.81
2023-02-28T11:38:21.423Z,102597.19
2023-02-28T11:39:25.369Z,102598.84
2023-02-28T11:40:38.843Z,102596.28
2023-02-28T11:41:57.490Z,102591.94
2023-02-28T11:43:18.249Z,102586.75
2023-02-28T11:44:27.814Z,102590.31
2023-02-28T11:45:46.117Z,102592.03
2023-02-28T11:46:52.190Z,102590.25
2023-02-28T11:48:03.732Z,102589.28
2023-02-28T11:49:22.402Z,102594.47
2023-02-28T11:50:41.060Z,102595.34
2023-02-28T11:51:53.834Z,102591.78
2023-02-28T11:53:04.747Z,102587.38
2023-02-28T11:54:30.301Z,102589.84
2023-02-28T11:55:37.547Z,102587.13
2023-02-28T11:56:45.100Z,102591.44
2023-02-28T11:58:05.154Z,102588.69
2023-02-28T11:59:36.081Z,102586.88
2023-02-28T12:00:51.352Z,102595.63
2023-02-28T12:02:24.200Z,102579.00
2023-02-28T12:03:33.484Z,102586.94
2023-02-28T12:04:43.832Z,102579.06
2023-02-28T12:05:47.787Z,102584.31
2023-02-28T12:06:58.914Z,102578.03
2023-02-28T12:08:13.383Z,102570.94
2023-02-28T12:09:34.561Z,102571.78
2023-02-28T12:10:56.247Z,102569.97
2023-02-28T12:12:06.592Z,102574.25
2023-02-28T12:13:20.016Z,102572.41
2023-02-28T12:15:14.515Z,102569.69
2023-02-28T12:16:37.649Z,102558.41
2023-02-28T12:17:53.101Z,102563.66
2023-02-28T12:19:09.977Z,102578.59
2023-02-28T12:20:23.327Z,102568.09
2023-02-28T12:21:34.856Z,102568.16
2023-02-28T12:22:44.542Z,102566.53
2023-02-28T12:24:03.807Z,102564.88
2023-02-28T12:25:26.077Z,102563.22
2023-02-28T12:26:37.567Z,102563.28
2023-02-28T12:27:42.988Z,102561.56
2023-02-28T12:28:50.804Z,102563.38
2023-02-28T12:29:57.763Z,102559.94
2023-02-28T12:31:05.689Z,102558.22
2023-02-28T12:32:16.082Z,102556.47
2023-02-28T12:33:24.425Z,102563.56
2023-02-28T12:34:30.754Z,102557.50